Majesty of the Seas — C6FZ8 — position and weather

sailwx.info

Track history (hours):
 
Tides and Currents Weather Stations Pressure Air Temp Water Temp Dewpoint Dewpoint Depression Visibility Wind Speed Wind Dir Waves Ship Positions

Majesty of the Seas (Bahamas)

Last reported at 2019-Feb-21 11:31 UTC. Time now 2019-Feb-21 11:41 UTC.
Position N 26°05' W 080°07'.

Length 268 m; draft 8 m.

Type: Ship. MMSI: 311734000.

Date/timePositionNaut miles runAvg speedWind from/ knotsBaromVisibWave heightAir tempDewpointWater temp
2019-Feb-21 11:31N 26°05' W 080°07'4 8.3
2019-Feb-21 11:01N 26°06' W 080°02'612.5
2019-Feb-21 10:30N 26°07' W 079°56'510.6
2019-Feb-21 10:00N 26°09' W 079°50'611.3
2019-Feb-21 09:30N 26°10' W 079°44'611.8
2019-Feb-21 09:00N 26°11' W 079°38'612.1
2019-Feb-21 08:30N 26°13' W 079°31'612.3
2019-Feb-21 08:00N 26°14' W 079°24'123 2.7
2019-Feb-19 09:26N 25°25' W 077°19'3 7.4
2019-Feb-19 08:58N 25°24' W 077°15'139 4.3
2019-Feb-18 01:03N 26°12' W 079°40'2 9.3
2019-Feb-18 00:51N 26°11' W 079°42'3 9.4
2019-Feb-18 00:30N 26°11' W 079°45'612.3
2019-Feb-18 00:00N 26°09' W 079°52'713.9
2019-Feb-17 23:30N 26°07' W 079°59'510.8
2019-Feb-17 23:00N 26°06' W 080°05'2 3.8
2019-Feb-17 22:30N 26°05' W 080°07'0 0.0
2019-Feb-17 22:00N 26°05' W 080°07'0 0.0
2019-Feb-17 21:30N 26°05' W 080°07'0 0.0
2019-Feb-17 21:00N 26°05' W 080°07'0 0.0
2019-Feb-17 20:30N 26°05' W 080°07'0 0.0
2019-Feb-17 20:00N 26°05' W 080°07'0 0.0
2019-Feb-17 19:27N 26°05' W 080°07'0 0.0
2019-Feb-17 19:00N 26°05' W 080°07'0 0.0
2019-Feb-17 18:30N 26°05' W 080°07'0 0.0
2019-Feb-17 17:57N 26°05' W 080°07'0 0.0
2019-Feb-17 17:30N 26°05' W 080°07'0 0.0
2019-Feb-17 17:00N 26°05' W 080°07'0 0.0
2019-Feb-17 16:30N 26°05' W 080°07'0 0.0
2019-Feb-17 16:00N 26°05' W 080°07'0 0.0
2019-Feb-17 15:30N 26°05' W 080°07'0 0.0
2019-Feb-17 15:00N 26°05' W 080°07'0 0.0
2019-Feb-17 14:30N 26°05' W 080°07'0 0.0
2019-Feb-17 14:00N 26°05' W 080°07'0 0.0
2019-Feb-17 13:30N 26°05' W 080°07'0 0.0
2019-Feb-17 13:00N 26°05' W 080°07'0 0.0
2019-Feb-17 12:30N 26°05' W 080°07'0 0.0
2019-Feb-17 12:00N 26°05' W 080°07'0 0.0
2019-Feb-17 11:30N 26°05' W 080°07'0 0.0
2019-Feb-17 11:00N 26°05' W 080°07'0 0.0
2019-Feb-17 10:30N 26°05' W 080°07'1 1.2
2019-Feb-17 10:00N 26°05' W 080°07'3 6.6
2019-Feb-17 09:30N 26°06' W 080°03'713.7
2019-Feb-17 09:01N 26°02' W 079°57'714.1
2019-Feb-17 08:31N 25°57' W 079°51'713.9
2019-Feb-17 08:00N 25°53' W 079°45'511.0
2019-Feb-17 07:30N 25°49' W 079°40'511.0
2019-Feb-17 07:00N 25°44' W 079°38'611.4
2019-Feb-17 06:30N 25°38' W 079°39'611.4
2019-Feb-17 06:00N 25°32' W 079°39'611.1
2019-Feb-17 05:29N 25°27' W 079°38'  
2019-Feb-12 23:51N 25°43' W 079°45'513.9
2019-Feb-12 23:30N 25°48' W 079°47'714.0
2019-Feb-12 23:00N 25°54' W 079°51'713.8
2019-Feb-12 22:31N 25°60' W 079°55'714.2
2019-Feb-12 22:01N 26°05' W 080°00'611.2
2019-Feb-12 21:30N 26°06' W 080°07'1 1.1
2019-Feb-12 21:01N 26°05' W 080°07'0 0.0
2019-Feb-12 20:30N 26°05' W 080°07'0 0.0
2019-Feb-12 20:00N 26°05' W 080°07'0 0.0
2019-Feb-12 19:30N 26°05' W 080°07'0 0.0
2019-Feb-12 19:00N 26°05' W 080°07'0 0.0
2019-Feb-12 18:30N 26°05' W 080°07'0 0.0
2019-Feb-12 18:00N 26°05' W 080°07'0 0.0
2019-Feb-12 17:30N 26°05' W 080°07'0 0.0
2019-Feb-12 17:00N 26°05' W 080°07'0 0.0
2019-Feb-12 16:30N 26°05' W 080°07'0 0.0
2019-Feb-12 16:00N 26°05' W 080°07'0 0.0
2019-Feb-12 15:30N 26°05' W 080°07'0 0.0
2019-Feb-12 15:00N 26°05' W 080°07'0 0.0
2019-Feb-12 14:30N 26°05' W 080°07'0 0.0
2019-Feb-12 14:00N 26°05' W 080°07'0 0.0
2019-Feb-12 13:30N 26°05' W 080°07'0 0.0
2019-Feb-12 13:00N 26°05' W 080°07'0 0.0
2019-Feb-12 12:30N 26°05' W 080°07'0 0.0
2019-Feb-12 12:00N 26°05' W 080°07'0 0.8
2019-Feb-12 11:30N 26°06' W 080°07'4 8.0
2019-Feb-12 11:00N 26°05' W 080°02'714.4
2019-Feb-12 10:30N 26°00' W 079°57'918.1
2019-Feb-12 10:00N 25°53' W 079°50'918.0
2019-Feb-12 09:30N 25°45' W 079°47'918.1
2019-Feb-12 09:00N 25°36' W 079°45'918.2
2019-Feb-12 08:30N 25°27' W 079°45'  
Track history (hours):
 
Tides and Currents Weather Stations Pressure Air Temp Water Temp Dewpoint Dewpoint Depression Visibility Wind Speed Wind Dir Waves Ship Positions

Majesty of the Seas (Bahamas)

Last reported at 2019-Feb-21 11:31 UTC. Time now 2019-Feb-21 11:41 UTC.
Position N 26°05' W 080°07'.

Length 268 m; draft 8 m.

Type: Ship. MMSI: 311734000.

Date/timePositionNaut miles runAvg speedWind from/ knotsBaromVisibWave heightAir tempDewpointWater temp
2019-Feb-21 11:31N 26°05' W 080°07'4 8.3
2019-Feb-21 11:01N 26°06' W 080°02'612.5
2019-Feb-21 10:30N 26°07' W 079°56'510.6
2019-Feb-21 10:00N 26°09' W 079°50'611.3
2019-Feb-21 09:30N 26°10' W 079°44'611.8
2019-Feb-21 09:00N 26°11' W 079°38'612.1
2019-Feb-21 08:30N 26°13' W 079°31'612.3
2019-Feb-21 08:00N 26°14' W 079°24'123 2.7
2019-Feb-19 09:26N 25°25' W 077°19'3 7.4
2019-Feb-19 08:58N 25°24' W 077°15'139 4.3
2019-Feb-18 01:03N 26°12' W 079°40'2 9.3
2019-Feb-18 00:51N 26°11' W 079°42'3 9.4
2019-Feb-18 00:30N 26°11' W 079°45'612.3
2019-Feb-18 00:00N 26°09' W 079°52'713.9
2019-Feb-17 23:30N 26°07' W 079°59'510.8
2019-Feb-17 23:00N 26°06' W 080°05'2 3.8
2019-Feb-17 22:30N 26°05' W 080°07'0 0.0
2019-Feb-17 22:00N 26°05' W 080°07'0 0.0
2019-Feb-17 21:30N 26°05' W 080°07'0 0.0
2019-Feb-17 21:00N 26°05' W 080°07'0 0.0
2019-Feb-17 20:30N 26°05' W 080°07'0 0.0
2019-Feb-17 20:00N 26°05' W 080°07'0 0.0
2019-Feb-17 19:27N 26°05' W 080°07'0 0.0
2019-Feb-17 19:00N 26°05' W 080°07'0 0.0
2019-Feb-17 18:30N 26°05' W 080°07'0 0.0
2019-Feb-17 17:57N 26°05' W 080°07'0 0.0
2019-Feb-17 17:30N 26°05' W 080°07'0 0.0
2019-Feb-17 17:00N 26°05' W 080°07'0 0.0
2019-Feb-17 16:30N 26°05' W 080°07'0 0.0
2019-Feb-17 16:00N 26°05' W 080°07'0 0.0
2019-Feb-17 15:30N 26°05' W 080°07'0 0.0
2019-Feb-17 15:00N 26°05' W 080°07'0 0.0
2019-Feb-17 14:30N 26°05' W 080°07'0 0.0
2019-Feb-17 14:00N 26°05' W 080°07'0 0.0
2019-Feb-17 13:30N 26°05' W 080°07'0 0.0
2019-Feb-17 13:00N 26°05' W 080°07'0 0.0
2019-Feb-17 12:30N 26°05' W 080°07'0 0.0
2019-Feb-17 12:00N 26°05' W 080°07'0 0.0
2019-Feb-17 11:30N 26°05' W 080°07'0 0.0
2019-Feb-17 11:00N 26°05' W 080°07'0 0.0
2019-Feb-17 10:30N 26°05' W 080°07'1 1.2
2019-Feb-17 10:00N 26°05' W 080°07'3 6.6
2019-Feb-17 09:30N 26°06' W 080°03'713.7
2019-Feb-17 09:01N 26°02' W 079°57'714.1
2019-Feb-17 08:31N 25°57' W 079°51'713.9
2019-Feb-17 08:00N 25°53' W 079°45'511.0
2019-Feb-17 07:30N 25°49' W 079°40'511.0
2019-Feb-17 07:00N 25°44' W 079°38'611.4
2019-Feb-17 06:30N 25°38' W 079°39'611.4
2019-Feb-17 06:00N 25°32' W 079°39'611.1
2019-Feb-17 05:29N 25°27' W 079°38'  
2019-Feb-12 23:51N 25°43' W 079°45'513.9
2019-Feb-12 23:30N 25°48' W 079°47'714.0
2019-Feb-12 23:00N 25°54' W 079°51'713.8
2019-Feb-12 22:31N 25°60' W 079°55'714.2
2019-Feb-12 22:01N 26°05' W 080°00'611.2
2019-Feb-12 21:30N 26°06' W 080°07'1 1.1
2019-Feb-12 21:01N 26°05' W 080°07'0 0.0
2019-Feb-12 20:30N 26°05' W 080°07'0 0.0
2019-Feb-12 20:00N 26°05' W 080°07'0 0.0
2019-Feb-12 19:30N 26°05' W 080°07'0 0.0
2019-Feb-12 19:00N 26°05' W 080°07'0 0.0
2019-Feb-12 18:30N 26°05' W 080°07'0 0.0
2019-Feb-12 18:00N 26°05' W 080°07'0 0.0
2019-Feb-12 17:30N 26°05' W 080°07'0 0.0
2019-Feb-12 17:00N 26°05' W 080°07'0 0.0
2019-Feb-12 16:30N 26°05' W 080°07'0 0.0
2019-Feb-12 16:00N 26°05' W 080°07'0 0.0
2019-Feb-12 15:30N 26°05' W 080°07'0 0.0
2019-Feb-12 15:00N 26°05' W 080°07'0 0.0
2019-Feb-12 14:30N 26°05' W 080°07'0 0.0
2019-Feb-12 14:00N 26°05' W 080°07'0 0.0
2019-Feb-12 13:30N 26°05' W 080°07'0 0.0
2019-Feb-12 13:00N 26°05' W 080°07'0 0.0
2019-Feb-12 12:30N 26°05' W 080°07'0 0.0
2019-Feb-12 12:00N 26°05' W 080°07'0 0.8
2019-Feb-12 11:30N 26°06' W 080°07'4 8.0
2019-Feb-12 11:00N 26°05' W 080°02'714.4
2019-Feb-12 10:30N 26°00' W 079°57'918.1
2019-Feb-12 10:00N 25°53' W 079°50'918.0
2019-Feb-12 09:30N 25°45' W 079°47'918.1
2019-Feb-12 09:00N 25°36' W 079°45'918.2
2019-Feb-12 08:30N 25°27' W 079°45'  

Dump ship's entire track history